createdAt,value
2022-11-24T00:01:37.052Z,100865.75
2022-11-24T00:04:34.244Z,100860.53
2022-11-24T00:10:17.005Z,100860.13
2022-11-24T00:13:03.423Z,100868.84
2022-11-24T00:15:55.605Z,100858.16
2022-11-24T00:18:52.890Z,100860.34
2022-11-24T00:21:32.015Z,100860.28
2022-11-24T00:24:17.390Z,100820.59
2022-11-24T00:27:02.946Z,100842.13
2022-11-24T00:29:49.193Z,100849.16
2022-11-24T00:32:27.722Z,100829.91
2022-11-24T00:35:13.707Z,100845.06
2022-11-24T00:38:02.335Z,100843.03
2022-11-24T00:40:46.989Z,100841.72
2022-11-24T00:43:26.064Z,100827.06
2022-11-24T00:46:19.881Z,100839.59
2022-11-24T00:49:05.557Z,100783.63
2022-11-24T00:52:07.681Z,100819.78
2022-11-24T00:54:47.262Z,100824.63
2022-11-24T00:57:25.090Z,100824.47
2022-11-24T01:00:02.346Z,100820.81
2022-11-24T01:02:48.761Z,100821.56
2022-11-24T01:05:36.218Z,100823.44
2022-11-24T01:08:22.253Z,100800.66
2022-11-24T01:11:05.607Z,100812.66
2022-11-24T01:14:08.976Z,100812.81
2022-11-24T01:16:54.377Z,100814.97
2022-11-24T01:20:13.062Z,100804.00
2022-11-24T01:25:51.765Z,100794.16
2022-11-24T01:31:39.114Z,100803.47
2022-11-24T01:34:34.745Z,100807.59
2022-11-24T01:37:21.615Z,100800.31
2022-11-24T01:39:59.688Z,100808.47
2022-11-24T01:43:14.184Z,100791.69
2022-11-24T01:46:06.017Z,100800.44
2022-11-24T01:48:50.659Z,100790.19
2022-11-24T01:51:33.402Z,100738.63
2022-11-24T01:54:17.212Z,100803.00
2022-11-24T01:57:10.601Z,100802.94
2022-11-24T02:02:52.527Z,100798.59
2022-11-24T02:05:38.583Z,100808.72
2022-11-24T02:08:33.625Z,100803.59
2022-11-24T02:11:24.927Z,100805.78
2022-11-24T02:14:40.461Z,100788.88
2022-11-24T02:17:26.621Z,100796.66
2022-11-24T02:20:30.390Z,100783.13
2022-11-24T02:23:17.616Z,100776.22
2022-11-24T02:26:19.324Z,100798.50
2022-11-24T02:29:20.246Z,100783.88
2022-11-24T02:32:12.221Z,100795.66
2022-11-24T02:40:51.873Z,100743.81
2022-11-24T02:43:30.302Z,100780.59
2022-11-24T02:46:23.702Z,100777.31
2022-11-24T02:49:19.234Z,100786.31
2022-11-24T02:52:06.150Z,100777.38
2022-11-24T02:54:38.514Z,100779.84
2022-11-24T02:57:19.709Z,100768.34
2022-11-24T03:00:01.436Z,100777.50
2022-11-24T03:02:57.023Z,100778.78
2022-11-24T03:05:48.592Z,100771.75
2022-11-24T03:08:36.759Z,100720.88
2022-11-24T03:11:30.963Z,100762.44
2022-11-24T03:14:18.382Z,100765.50
2022-11-24T03:16:55.421Z,100749.88
2022-11-24T03:19:42.580Z,100755.50
2022-11-24T03:22:21.149Z,100759.13
2022-11-24T03:25:04.210Z,100754.25
2022-11-24T03:27:49.645Z,100755.94
2022-11-24T03:30:29.803Z,100713.31
2022-11-24T03:33:26.249Z,100749.59
2022-11-24T03:36:17.688Z,100756.97
2022-11-24T03:38:56.025Z,100734.78
2022-11-24T03:41:39.740Z,100749.34
2022-11-24T03:44:28.314Z,100748.09
2022-11-24T03:47:20.832Z,100746.28
2022-11-24T03:50:02.519Z,100747.41
2022-11-24T03:53:02.788Z,100736.50
2022-11-24T03:55:44.063Z,100739.38
2022-11-24T03:58:32.186Z,100736.84
2022-11-24T04:01:18.384Z,100730.91
2022-11-24T04:06:48.097Z,100729.63
2022-11-24T04:10:00.482Z,100726.34
2022-11-24T04:12:56.245Z,100714.34
2022-11-24T04:16:00.275Z,100725.78
2022-11-24T04:21:41.646Z,100722.13
2022-11-24T04:24:35.587Z,100733.06
2022-11-24T04:27:48.234Z,100716.34
2022-11-24T04:33:32.274Z,100715.00
2022-11-24T04:36:14.542Z,100720.97
2022-11-24T04:39:25.367Z,100717.50
2022-11-24T04:42:10.292Z,100721.06
2022-11-24T04:45:01.852Z,100700.53
2022-11-24T04:47:44.381Z,100726.75
2022-11-24T04:50:39.778Z,100695.75
2022-11-24T04:53:26.216Z,100706.41
2022-11-24T04:56:03.133Z,100726.91
2022-11-24T04:58:51.447Z,100697.97
2022-11-24T05:01:53.745Z,100672.38
2022-11-24T05:04:37.067Z,100717.69
2022-11-24T05:07:35.405Z,100717.31
2022-11-24T05:10:37.938Z,100728.41
2022-11-24T05:13:24.075Z,100711.97
2022-11-24T05:16:05.029Z,100719.06
2022-11-24T05:19:05.993Z,100702.38
2022-11-24T05:21:44.799Z,100715.19
2022-11-24T05:24:32.457Z,100726.19
2022-11-24T05:27:15.212Z,100716.50
2022-11-24T05:29:54.942Z,100730.16
2022-11-24T05:32:46.502Z,100733.56
2022-11-24T05:35:33.126Z,100742.00
2022-11-24T05:38:19.616Z,100738.50
2022-11-24T05:41:02.869Z,100747.06
2022-11-24T05:43:46.397Z,100693.84
2022-11-24T05:46:42.526Z,100743.66
2022-11-24T05:52:29.325Z,100756.81
2022-11-24T05:55:09.752Z,100762.69
2022-11-24T05:57:56.317Z,100762.50
2022-11-24T06:00:33.654Z,100760.75
2022-11-24T06:03:12.418Z,100675.69
2022-11-24T06:06:06.220Z,100770.75
2022-11-24T06:08:54.448Z,100771.53
2022-11-24T06:11:37.728Z,100759.97
2022-11-24T06:15:05.962Z,100763.34
2022-11-24T06:18:08.081Z,100771.75
2022-11-24T06:21:10.962Z,100786.91
2022-11-24T06:23:59.219Z,100784.09
2022-11-24T06:29:35.932Z,100775.69
2022-11-24T06:32:42.634Z,100793.09
2022-11-24T06:35:21.454Z,100793.88
2022-11-24T06:38:06.234Z,100793.06
2022-11-24T06:40:45.480Z,100795.38
2022-11-24T06:43:32.353Z,100799.50
2022-11-24T06:46:15.692Z,100802.81
2022-11-24T06:49:04.962Z,100755.47
2022-11-24T06:51:45.032Z,100797.19
2022-11-24T06:54:46.510Z,100810.84
2022-11-24T06:57:32.684Z,100811.53
2022-11-24T07:00:21.150Z,100768.59
2022-11-24T07:03:06.060Z,100798.19
2022-11-24T07:05:56.332Z,100815.25
2022-11-24T07:11:52.476Z,100820.56
2022-11-24T07:14:43.927Z,100818.25
2022-11-24T07:17:24.310Z,100819.56
2022-11-24T07:23:09.096Z,100815.84
2022-11-24T07:25:56.851Z,100820.03
2022-11-24T07:28:45.214Z,100824.91
2022-11-24T07:31:34.768Z,100834.00
2022-11-24T07:34:20.096Z,100832.13
2022-11-24T07:36:57.488Z,100833.56
2022-11-24T07:39:34.413Z,100835.72
2022-11-24T07:42:13.607Z,100845.81
2022-11-24T07:45:06.291Z,100845.31
2022-11-24T07:48:09.124Z,100841.69
2022-11-24T07:50:54.078Z,100828.31
2022-11-24T07:53:53.545Z,100844.56
2022-11-24T07:56:55.533Z,100846.03
2022-11-24T07:59:40.135Z,100846.59
2022-11-24T08:02:34.496Z,100847.94
2022-11-24T08:08:30.240Z,100852.94
2022-11-24T08:11:25.008Z,100858.75
2022-11-24T08:14:05.949Z,100865.47
2022-11-24T08:16:55.728Z,100866.97
2022-11-24T08:20:02.938Z,100863.31
2022-11-24T08:22:51.853Z,100863.94
2022-11-24T08:25:38.009Z,100871.41
2022-11-24T08:28:22.392Z,100866.16
2022-11-24T08:31:36.664Z,100875.09
2022-11-24T08:34:29.107Z,100875.84
2022-11-24T08:37:31.478Z,100879.91
2022-11-24T08:40:20.246Z,100879.78
2022-11-24T08:43:13.167Z,100884.66
2022-11-24T08:46:15.886Z,100882.88
2022-11-24T08:49:08.585Z,100878.09
2022-11-24T08:51:48.939Z,100879.69
2022-11-24T08:54:25.373Z,100875.09
2022-11-24T08:57:20.187Z,100888.97
2022-11-24T09:00:15.446Z,100889.75
2022-11-24T09:03:00.851Z,100887.75
2022-11-24T09:05:56.866Z,100884.97
2022-11-24T09:09:00.201Z,100888.97
2022-11-24T09:11:36.931Z,100905.34
2022-11-24T09:14:24.342Z,100896.13
2022-11-24T09:17:20.879Z,100896.47
2022-11-24T09:20:08.602Z,100893.69
2022-11-24T09:23:01.761Z,100880.09
2022-11-24T09:25:39.818Z,100906.97
2022-11-24T09:28:41.101Z,100905.13
2022-11-24T09:32:02.116Z,100904.19
2022-11-24T09:34:56.546Z,100906.34
2022-11-24T09:37:32.918Z,100912.47
2022-11-24T09:40:19.352Z,100901.28
2022-11-24T09:46:22.769Z,100917.75
2022-11-24T09:49:10.110Z,100915.97
2022-11-24T09:51:50.423Z,100910.38
2022-11-24T09:54:45.793Z,100910.97
2022-11-24T09:57:36.958Z,100868.13
2022-11-24T10:00:28.232Z,100925.38
2022-11-24T10:03:09.678Z,100915.50
2022-11-24T10:06:15.030Z,100917.81
2022-11-24T10:09:21.962Z,100908.91
2022-11-24T10:12:13.673Z,100913.53
2022-11-24T10:15:40.777Z,100910.47
2022-11-24T10:18:32.702Z,100934.91
2022-11-24T10:21:40.923Z,100924.47
2022-11-24T10:24:48.338Z,100919.69
2022-11-24T10:27:28.387Z,100926.91
2022-11-24T10:33:20.280Z,100917.91
2022-11-24T10:36:03.542Z,100882.19
2022-11-24T10:42:11.468Z,100908.47
2022-11-24T10:45:05.973Z,100919.03
2022-11-24T10:47:49.487Z,100932.00
2022-11-24T10:50:42.626Z,100915.91
2022-11-24T10:53:34.505Z,100925.25
2022-11-24T10:56:43.902Z,100790.31
2022-11-24T10:59:44.789Z,100934.31
2022-11-24T11:02:42.475Z,100930.38
2022-11-24T11:05:59.220Z,100940.00
2022-11-24T11:08:37.550Z,100923.59
2022-11-24T11:11:42.519Z,100933.41
2022-11-24T11:14:52.946Z,100937.06
2022-11-24T11:18:14.293Z,100947.56
2022-11-24T11:24:06.486Z,100936.88
2022-11-24T11:26:58.203Z,100931.03
2022-11-24T11:36:16.580Z,100927.78
2022-11-24T11:38:55.445Z,100933.03
2022-11-24T11:41:43.136Z,100933.28
2022-11-24T11:44:41.240Z,100934.31
2022-11-24T11:51:21.198Z,100944.72
2022-11-24T11:54:08.606Z,100950.81
2022-11-24T11:57:04.137Z,100954.31
2022-11-24T12:00:09.465Z,100955.19
2022-11-24T12:03:18.915Z,100957.09
2022-11-24T12:06:13.214Z,100950.97
2022-11-24T12:09:23.600Z,100956.34
2022-11-24T12:12:51.766Z,100961.59
2022-11-24T12:15:39.299Z,100957.28
2022-11-24T12:18:59.401Z,100957.22
2022-11-24T12:21:52.776Z,100963.38
2022-11-24T12:24:47.961Z,100966.84
2022-11-24T12:27:39.217Z,100961.59
2022-11-24T12:30:25.318Z,100963.22
2022-11-24T12:33:28.323Z,100975.34
2022-11-24T12:36:11.673Z,100978.88
2022-11-24T12:39:15.181Z,100977.38
2022-11-24T12:45:20.046Z,100952.81
2022-11-24T12:48:19.449Z,100974.53
2022-11-24T12:51:10.515Z,100974.91
2022-11-24T12:54:06.477Z,100965.38
2022-11-24T12:56:59.214Z,100970.63
2022-11-24T13:00:09.745Z,100970.63
2022-11-24T13:03:46.539Z,100973.25
2022-11-24T13:09:52.117Z,100968.13
2022-11-24T13:12:29.777Z,100968.06
2022-11-24T13:15:45.305Z,100965.50
2022-11-24T13:18:55.559Z,100973.63
2022-11-24T13:22:12.619Z,100975.09
2022-11-24T13:24:52.487Z,100976.72
2022-11-24T13:27:53.271Z,100975.09
2022-11-24T13:31:26.333Z,100962.22
2022-11-24T13:34:08.116Z,100968.50
2022-11-24T13:37:32.125Z,100976.84
2022-11-24T13:40:06.695Z,100948.66
2022-11-24T13:43:25.643Z,100960.53
2022-11-24T13:46:21.127Z,100973.75
2022-11-24T13:49:36.629Z,100984.94
2022-11-24T13:52:54.454Z,100985.75
2022-11-24T13:55:46.637Z,100983.72
2022-11-24T13:58:51.191Z,100990.31
2022-11-24T14:01:42.636Z,100981.84
2022-11-24T14:04:40.358Z,100983.47
2022-11-24T14:08:05.638Z,100933.28
2022-11-24T14:11:02.823Z,100984.94
2022-11-24T14:13:49.509Z,100970.50
2022-11-24T14:16:37.479Z,100985.75
2022-11-24T14:19:21.743Z,100995.03
2022-11-24T14:22:08.226Z,100992.19
2022-11-24T14:25:07.624Z,100986.66
2022-11-24T14:27:53.290Z,100990.69
2022-11-24T14:30:41.441Z,100996.47
2022-11-24T14:33:21.698Z,100981.88
2022-11-24T14:36:05.365Z,100972.78
2022-11-24T14:39:01.785Z,100997.09
2022-11-24T14:41:49.397Z,101000.31
2022-11-24T14:44:34.908Z,101002.78
2022-11-24T14:47:15.691Z,100991.22
2022-11-24T14:50:15.684Z,101005.28
2022-11-24T14:56:23.042Z,101011.88
2022-11-24T14:59:08.399Z,101002.03
2022-11-24T15:02:02.089Z,101002.50
2022-11-24T15:05:02.054Z,100995.19
2022-11-24T15:07:43.644Z,101011.53
2022-11-24T15:10:54.911Z,101011.53
2022-11-24T15:13:34.498Z,101013.88
2022-11-24T15:16:19.365Z,101016.56
2022-11-24T15:19:18.123Z,101017.25
2022-11-24T15:22:01.216Z,101023.97
2022-11-24T15:24:47.590Z,101010.22
2022-11-24T15:27:32.975Z,101018.84
2022-11-24T15:30:20.926Z,101009.25
2022-11-24T15:33:03.643Z,101009.75
2022-11-24T15:36:24.527Z,101005.34
2022-11-24T15:39:27.971Z,100990.31
2022-11-24T15:42:13.801Z,101007.38
2022-11-24T15:44:54.008Z,100999.34
2022-11-24T15:48:00.884Z,100994.66
2022-11-24T15:50:52.533Z,101009.81
2022-11-24T15:53:38.179Z,100992.81
2022-11-24T15:56:33.101Z,100993.69
2022-11-24T15:59:37.675Z,100891.72
2022-11-24T16:02:28.650Z,101025.50
2022-11-24T16:05:26.936Z,101025.31
2022-11-24T16:08:19.561Z,101023.06
2022-11-24T16:11:22.857Z,101028.44
2022-11-24T16:20:00.153Z,101025.34
2022-11-24T16:22:38.112Z,101008.06
2022-11-24T16:25:20.349Z,100973.94
2022-11-24T16:28:02.600Z,101022.44
2022-11-24T16:30:47.948Z,101024.84
2022-11-24T16:33:26.062Z,100964.31
2022-11-24T16:36:19.472Z,101009.28
2022-11-24T16:39:11.828Z,101022.50
2022-11-24T16:42:18.225Z,101022.81
2022-11-24T16:45:13.242Z,100901.69
2022-11-24T16:47:54.120Z,101036.69
2022-11-24T16:50:37.733Z,101038.09
2022-11-24T16:53:48.216Z,101035.97
2022-11-24T16:56:30.240Z,101026.19
2022-11-24T16:59:18.201Z,101037.19
2022-11-24T17:02:07.318Z,101029.97
2022-11-24T17:04:46.360Z,101040.16
2022-11-24T17:07:35.598Z,101025.13
2022-11-24T17:10:19.185Z,101032.56
2022-11-24T17:13:05.284Z,100995.75
2022-11-24T17:15:54.822Z,101038.94
2022-11-24T17:18:36.890Z,101043.34
2022-11-24T17:21:23.480Z,101022.63
2022-11-24T17:24:16.402Z,101041.25
2022-11-24T17:26:58.072Z,101028.66
2022-11-24T17:29:48.983Z,101032.41
2022-11-24T17:35:21.783Z,101034.09
2022-11-24T17:38:09.113Z,101030.19
2022-11-24T17:44:00.678Z,101009.88
2022-11-24T17:46:49.396Z,101022.50
2022-11-24T17:49:34.279Z,101023.84
2022-11-24T17:52:28.511Z,101024.53
2022-11-24T17:55:34.367Z,101017.69
2022-11-24T17:58:26.733Z,101015.94
2022-11-24T18:01:29.803Z,101019.25
2022-11-24T18:04:15.672Z,101013.78
2022-11-24T18:07:16.991Z,101004.38
2022-11-24T18:09:57.856Z,101016.53
2022-11-24T18:12:35.369Z,100999.13
2022-11-24T18:15:14.499Z,101011.44
2022-11-24T18:17:52.807Z,101012.22
2022-11-24T18:20:51.456Z,101005.25
2022-11-24T18:23:41.752Z,101006.13
2022-11-24T18:26:43.532Z,101012.31
2022-11-24T18:29:29.172Z,101006.63
2022-11-24T18:32:09.341Z,101018.59
2022-11-24T18:34:52.869Z,101024.34
2022-11-24T18:37:40.002Z,101010.25
2022-11-24T18:40:19.406Z,101019.84
2022-11-24T18:42:58.553Z,101024.91
2022-11-24T18:45:36.127Z,101018.75
2022-11-24T18:48:30.795Z,101024.31
2022-11-24T18:51:07.865Z,101026.34
2022-11-24T18:53:49.265Z,101020.84
2022-11-24T18:56:32.376Z,101025.06
2022-11-24T18:59:18.778Z,101009.44
2022-11-24T19:02:05.207Z,101029.25
2022-11-24T19:04:58.256Z,101017.34
2022-11-24T19:07:40.068Z,101034.59
2022-11-24T19:10:26.922Z,101029.31
2022-11-24T19:13:17.729Z,101031.09
2022-11-24T19:16:04.512Z,101020.69
2022-11-24T19:18:44.761Z,101036.91
2022-11-24T19:21:44.018Z,100895.03
2022-11-24T19:24:34.056Z,101013.78
2022-11-24T19:27:19.368Z,101031.69
2022-11-24T19:30:06.349Z,101034.09
2022-11-24T19:32:58.421Z,101030.38
2022-11-24T19:35:56.574Z,101027.22
2022-11-24T19:38:33.329Z,101008.81
2022-11-24T19:41:14.258Z,101015.88
2022-11-24T19:44:05.574Z,101015.03
2022-11-24T19:46:45.238Z,101024.94
2022-11-24T19:52:32.782Z,101020.16
2022-11-24T19:55:10.705Z,101030.69
2022-11-24T19:58:18.681Z,101031.81
2022-11-24T20:01:12.189Z,101038.69
2022-11-24T20:04:03.665Z,100979.66
2022-11-24T20:07:03.348Z,101033.69
2022-11-24T20:09:52.255Z,101037.78
2022-11-24T20:12:41.334Z,101048.72
2022-11-24T20:15:23.630Z,101063.38
2022-11-24T20:18:04.368Z,101065.34
2022-11-24T20:20:44.938Z,101064.44
2022-11-24T20:23:49.353Z,101070.78
2022-11-24T20:26:31.467Z,101069.88
2022-11-24T20:29:15.846Z,100940.28
2022-11-24T20:31:55.501Z,101058.25
2022-11-24T20:34:42.597Z,101065.31
2022-11-24T20:37:38.227Z,101082.63
2022-11-24T20:40:24.643Z,100943.09
2022-11-24T20:43:09.456Z,101084.16
2022-11-24T20:45:52.978Z,101086.00
2022-11-24T20:48:50.202Z,101089.59
2022-11-24T20:51:32.787Z,101086.00
2022-11-24T20:54:20.556Z,101089.47
2022-11-24T20:57:10.861Z,101077.91
2022-11-24T21:00:04.469Z,101084.50
2022-11-24T21:02:51.698Z,101115.63
2022-11-24T21:05:32.593Z,101099.75
2022-11-24T21:08:12.315Z,101085.56
2022-11-24T21:11:10.832Z,101116.09
2022-11-24T21:14:23.568Z,101135.50
2022-11-24T21:17:08.350Z,101130.88
2022-11-24T21:20:04.371Z,101125.59
2022-11-24T21:22:42.230Z,101123.06
2022-11-24T21:25:39.607Z,101124.72
2022-11-24T21:28:30.616Z,101134.19
2022-11-24T21:31:46.752Z,101138.19
2022-11-24T21:34:37.840Z,101130.88
2022-11-24T21:37:23.441Z,101143.56
2022-11-24T21:40:01.709Z,101148.06
2022-11-24T21:45:50.014Z,101157.91
2022-11-24T21:48:38.623Z,101166.38
2022-11-24T21:51:31.476Z,101152.16
2022-11-24T21:54:24.125Z,101159.31
2022-11-24T21:57:06.127Z,101158.22
2022-11-24T21:59:45.491Z,101158.38
2022-11-24T22:02:28.909Z,101160.44
2022-11-24T22:05:22.977Z,101161.81
2022-11-24T22:11:07.812Z,101165.59
2022-11-24T22:13:47.622Z,101166.88
2022-11-24T22:16:49.168Z,101167.00
2022-11-24T22:19:24.445Z,101188.63
2022-11-24T22:22:03.188Z,101193.91
2022-11-24T22:24:55.632Z,101192.16
2022-11-24T22:30:39.627Z,101202.31
2022-11-24T22:33:17.646Z,101195.91
2022-11-24T22:36:04.063Z,101200.56
2022-11-24T22:38:41.126Z,101091.97
2022-11-24T22:41:35.857Z,101215.63
2022-11-24T22:44:13.906Z,101205.66
2022-11-24T22:47:02.586Z,101216.81
2022-11-24T22:49:54.539Z,101215.13
2022-11-24T22:52:40.822Z,101218.09
2022-11-24T22:55:21.323Z,101222.34
2022-11-24T22:58:05.726Z,101221.47
2022-11-24T23:00:52.307Z,101223.22
2022-11-24T23:03:37.296Z,101220.00
2022-11-24T23:06:28.958Z,101212.19
2022-11-24T23:09:17.272Z,101212.16
2022-11-24T23:12:14.557Z,101199.69
2022-11-24T23:15:02.770Z,101195.88
2022-11-24T23:17:46.662Z,101197.28
2022-11-24T23:20:36.134Z,101206.91
2022-11-24T23:23:29.213Z,101199.34
2022-11-24T23:26:17.978Z,101184.97
2022-11-24T23:29:08.107Z,101167.13
2022-11-24T23:31:49.840Z,101179.03
2022-11-24T23:34:40.868Z,101176.72
2022-11-24T23:40:15.964Z,101157.63
2022-11-24T23:43:10.504Z,101156.78
2022-11-24T23:45:48.676Z,101156.13
2022-11-24T23:48:36.231Z,101160.19
2022-11-24T23:51:20.799Z,101154.22
2022-11-24T23:54:07.738Z,101154.78
2022-11-24T23:56:54.210Z,101153.69
2022-11-24T23:59:34.853Z,101142.78
